Terminal Aerodrome Forecast
Issued by NWS Wilmington, OH

Current Version | Previous Version | Graphics & Text | Print | Product List | Glossary On
Versions: 1 2 3 4 5 6 7 8 9 10 11 12 13 14 15 16 17 18 19 20 21 22 23
327
FTUS41 KILN 201120
TAFDAY
TAF
KDAY 201120Z 2012/2112 17008KT 3SM -SHRA BR OVC005
     FM201300 20008KT P6SM OVC009
     FM201800 22010KT P6SM OVC012
     FM202100 23010KT P6SM BKN035
     FM210400 16005KT P6SM BKN008=

USA.gov is the U.S. government's official web portal to all federal, state and local government web resources and services.